• Join FlightAware (Why Join?)
  • Login
  • US Flag 
08:23AM EDT


 

Airport Tracker/Info


-or-


 

Live Flight TrackerFlight Track Log ✈ N661WL ✈ 17-Jul-2013 ✈ KPDK - KABY

Flight Track Log - Related Links

Times and Time Zones

All times are in EDT time to prevent confusion due to time zone crossing. See the N661WL flight status page for this flight to view local times or setup timezone preferences in your user account.

Time Position Orientation Groundspeed Altitude Reporting Facility
EDT Latitude Longitude Course Direction KTS MPH feet Rate Location/Type
08:08PM 33.8500 -84.3333 231° Southwest 145 167 2,200  Level Atlanta TRACON
08:09PM 33.8167 -84.3833 231° Southwest 146 168 3,800 1,200 Climbing Atlanta TRACON
08:10PM 33.7833 -84.3833 180° South 151 174 4,800 540 Climbing Atlanta TRACON
08:11PM 33.7333 -84.4000 195° South 188 216 5,000 60 Climbing Atlanta TRACON
08:12PM 33.6667 -84.4000 180° South 197 227 5,000  Level Atlanta TRACON
08:13PM 33.6167 -84.4000 180° South 219 252 5,000  Level Atlanta TRACON
08:14PM 33.5667 -84.4000 180° South 192 221 5,100  Climbing Atlanta TRACON
08:15PM 33.5167 -84.4000 180° South 198 228 5,000 -60 Descending Atlanta TRACON
08:16PM 33.4667 -84.3833 164° South 197 227 5,000  Level Atlanta TRACON
08:17PM 33.4000 -84.3833 180° South 195 224 5,100  Climbing Atlanta TRACON
08:18PM 33.3500 -84.3833 180° South 190 219 5,000 -60 Descending Atlanta TRACON
08:19PM 33.3000 -84.3667 164° South 184 212 5,000  Level Atlanta TRACON
08:20PM 33.2500 -84.3667 180° South 185 213 5,000 27,720 Level Atlanta TRACON
08:21PM 33.2000 -84.3500 164° South 188 216 57,700  Climbing Atlanta TRACON
08:22PM 33.1500 -84.3500 180° South 187 215 5,100 -25,080 Descending Atlanta TRACON
08:23PM 33.1000 -84.3500 180° South 191 220 5,100  Level Atlanta TRACON
08:24PM 33.0500 -84.3500 180° South 187 215 5,100  Level Atlanta TRACON
08:25PM 32.9833 -84.3333 168° South 190 219 5,100 -60 Level Atlanta TRACON
08:26PM 32.9500 -84.3333 180° South 190 219 5,000 -120 Descending Atlanta TRACON
08:27PM 32.8833 -84.3333 180° South 185 213 4,900  Descending Atlanta TRACON
08:28PM 32.8333 -84.3000 151° Southeast 184 212 5,000  Climbing Atlanta TRACON
08:29PM 32.7833 -84.2833 164° South 184 212 5,000  Level Atlanta TRACON
08:30PM 32.7333 -84.2667 164° South 187 215 5,000  Level Atlanta TRACON
08:31PM 32.6833 -84.2500 164° South 184 212 5,000  Level Atlanta TRACON
08:32PM 32.6500 -84.2333 157° South 190 219 5,000  Level Atlanta TRACON
08:33PM 32.5833 -84.2167 168° South 196 226 5,000  Level Atlanta TRACON
08:34PM 32.5333 -84.2000 164° South 199 229 5,000  Level Atlanta TRACON
08:35PM 32.4833 -84.2167 196° South 197 227 5,000  Level Atlanta TRACON
08:36PM 32.4167 -84.2167 180° South 194 223 5,000 -60 Level Atlanta TRACON
08:37PM 32.3667 -84.2167 180° South 196 226 4,900  Descending Atlanta TRACON
08:38PM 32.3167 -84.2333 196° South 193 222 5,000  Climbing Atlanta TRACON
08:39PM 32.2667 -84.2333 180° South 194 223 5,000 -60 Level Atlanta TRACON
08:40PM 32.2167 -84.2500 196° South 195 224 4,900  Descending Atlanta TRACON
08:41PM 32.1364 -84.2492 179° South 186 214 5,000  Climbing Jacksonville Center
08:42PM 32.0842 -84.2511 182° South 186 214 5,000  Level Jacksonville Center
08:43PM 32.0297 -84.2550 183° South 191 220 5,000 -60 Level Jacksonville Center
08:44PM 31.9775 -84.2494 175° South 196 226 4,900 -300 Descending Jacksonville Center
08:45PM 31.9214 -84.2461 177° South 196 226 4,400 -480 Descending Jacksonville Center
08:46PM 31.8672 -84.2356 171° South 196 226 4,000 -480 Descending Jacksonville Center
08:47PM 31.8131 -84.2275 173° South 196 226 3,500 -540 Descending Jacksonville Center
08:48PM 31.7608 -84.2119 166° South 196 226 3,000 -540 Descending Jacksonville Center
08:49PM 31.7089 -84.2064 175° South 196 226 2,500 -540 Descending Jacksonville Center
08:50PM 31.6567 -84.1933 168° South 196 226 2,000 -540 Descending Jacksonville Center